SBSJ

Professor Urbano Ernesto Stumpf Airport

São José Dos Campos, Brazil
TAF SBSJ 212020Z 2200/2224 23005KT 7000 BKN020 TN14/2209Z TX26/2217Z BECMG 2205/2207 26004KT 4000 BR BKN008 BECMG 2212/2214 24005KT BKN020 PROB 30 2216/2220 20015KT 4000 TSRA BKN020 FEW025CB RMK PGZ
Issued Valid From Valid To
Sep-21 @ 20:20 UTC
(7 hours ago)
Sep-22 @ 00:00 UTC
(4 hours ago)
Sep-23 @ 00:00 UTC
(in 20 hours)
to
to
to
to
TAF SBSJ 212020Z 2200/2224 23005KT 7000 BKN020 TN14/2209Z TX26/2217Z BECMG 2205/2207 26004KT 4000 BR BKN008 BECMG 2212/2214 24005KT BKN020 PROB 30 2216/2220 20015KT 4000 TSRA BKN020 FEW025CB RMK PGZ
Issued Sep-21 @ 20:20 UTC
(7 hours ago)
Valid From Sep-22 @ 00:00 UTC
(4 hours ago)
Valid To Sep-23 @ 00:00 UTC
(in 20 hours)
-
-
-
-